Killarney, FL (34740)

6:29 PM EDT on August 03, 2015 (GMT -0400)
Oakland Pointe | | Change Station
CLOSE
Current Station
Personal Weather Station
Location: Oakland, FL
Elevation: 92 ft
Nearby Weather Stations

Elev 92 ft 28.56 °N, 81.63 °W | Updated 9 seconds ago

Overcast
Overcast
80.6 °F
Feels Like 86 °F
N
0.0
Wind Variable Wind from ESE
Gusts 6.0 mph

Today
High -- | Low -- °F
--% Chance of Precip.
Yesterday
High -- | Low -- °F
Precip. -- in
6:49 AM 8:16 PM
Waning Gibbous, 83% visible
Pressure 29.95 in
Visibility 10.0 miles
Clouds Few 2300 ft
Scattered Clouds 4000 ft
Heat Index 86 °F
Dew Point 76 °F
Humidity 85%
Rainfall 1.09 in
Snow Depth Not available.
UV 3 out of 12
Pollen 3.70 out of 12
Air Quality Not available.
Flu Activity Not available.
METAR KORL 032153Z 22012KT 10SM FEW023 SCT040 28/23 A2994 RMK AO2 SLP141 T02780233

More Conditions Fewer Conditions

Pressure 29.95 in
Visibility 10.0 miles
Clouds Few 2300 ft
Scattered Clouds 4000 ft
Heat Index 86 °F
Dew Point 76 °F
Humidity 85%
Rainfall 1.09 in
Snow Depth Not available.
UV 3 out of 12
Pollen 3.70 out of 12
Air Quality Not available.
Flu Activity Not available.
METAR KORL 032153Z 22012KT 10SM FEW023 SCT040 28/23 A2994 RMK AO2 SLP141 T02780233

More Conditions Fewer Conditions

10-Day Weather Forecast

×

Almanac

Astronomy

Aug. 03, 2015 Rise Set
Actual Time
Civil Twilight
Nautical Twilight
Astronomical Twilight
Moon
Length of Visible Light
Length of Day
Tomorrow will be .
, % of the Moon is Illuminated

Today's Extremes

State Highs State Lows

Community

WunderPhotos

Upload Photos

1,843,785 photos uploaded!

WunderBlogs® & News

Nearby

Air Quality

  Air Quality AQ Index Pollutant
Not available.

Snow Depth

Station Depth Elevation

Earthquake Activity

City Distance Mag. Time & Date
Minimum magnitude displayed is 2.5.

Coastal Water Temperatures

Place Temperature

Stations

Nearby Weather Stations

Station Location Temp. Windchill Dew Point Humidity Wind Precip. Elev Updated Type